sensor_id;sensor_type;location;lat;lon;timestamp;temperature;humidity
46732;DHT22;32477;51.474;5.696;2023-04-01T00:02:22;9.90;99.90
46732;DHT22;32477;51.474;5.696;2023-04-01T00:04:47;9.90;99.90
46732;DHT22;32477;51.474;5.696;2023-04-01T00:07:13;9.90;99.90
46732;DHT22;32477;51.474;5.696;2023-04-01T00:09:39;9.90;99.90
46732;DHT22;32477;51.474;5.696;2023-04-01T00:12:05;9.80;99.90
46732;DHT22;32477;51.474;5.696;2023-04-01T00:14:30;9.90;99.90
46732;DHT22;32477;51.474;5.696;2023-04-01T00:16:56;9.90;99.90
46732;DHT22;32477;51.474;5.696;2023-04-01T00:19:22;9.80;99.90
46732;DHT22;32477;51.474;5.696;2023-04-01T00:21:48;9.90;99.90
46732;DHT22;32477;51.474;5.696;2023-04-01T00:24:13;9.80;99.90
46732;DHT22;32477;51.474;5.696;2023-04-01T00:26:39;9.90;99.90
46732;DHT22;32477;51.474;5.696;2023-04-01T00:29:07;9.80;99.90
46732;DHT22;32477;51.474;5.696;2023-04-01T00:31:33;9.80;99.90
46732;DHT22;32477;51.474;5.696;2023-04-01T00:33:59;9.80;99.90
46732;DHT22;32477;51.474;5.696;2023-04-01T00:36:25;9.90;99.90
46732;DHT22;32477;51.474;5.696;2023-04-01T00:38:53;9.80;99.90
46732;DHT22;32477;51.474;5.696;2023-04-01T00:41:19;9.80;99.90
46732;DHT22;32477;51.474;5.696;2023-04-01T00:43:48;9.80;99.90
46732;DHT22;32477;51.474;5.696;2023-04-01T00:46:15;9.80;99.90
46732;DHT22;32477;51.474;5.696;2023-04-01T00:48:48;9.80;99.90
46732;DHT22;32477;51.474;5.696;2023-04-01T00:51:18;9.80;99.90
46732;DHT22;32477;51.474;5.696;2023-04-01T00:53:48;9.80;99.90
46732;DHT22;32477;51.474;5.696;2023-04-01T00:56:36;9.80;99.90
46732;DHT22;32477;51.474;5.696;2023-04-01T00:59:14;9.80;99.90
46732;DHT22;32477;51.474;5.696;2023-04-01T01:01:41;9.90;99.90
46732;DHT22;32477;51.474;5.696;2023-04-01T01:04:18;9.90;99.90
46732;DHT22;32477;51.474;5.696;2023-04-01T01:15:46;9.80;99.90
46732;DHT22;32477;51.474;5.696;2023-04-01T01:18:23;9.80;99.90
46732;DHT22;32477;51.474;5.696;2023-04-01T01:37:26;9.80;99.90
46732;DHT22;32477;51.474;5.696;2023-04-01T01:39:56;9.80;99.90
46732;DHT22;32477;51.474;5.696;2023-04-01T01:42:25;9.80;99.90
46732;DHT22;32477;51.474;5.696;2023-04-01T01:44:53;9.80;99.90
46732;DHT22;32477;51.474;5.696;2023-04-01T01:47:22;9.80;99.90
46732;DHT22;32477;51.474;5.696;2023-04-01T01:49:50;9.80;99.90
46732;DHT22;32477;51.474;5.696;2023-04-01T01:52:17;9.80;99.90
46732;DHT22;32477;51.474;5.696;2023-04-01T01:54:51;9.80;99.90
46732;DHT22;32477;51.474;5.696;2023-04-01T01:57:19;9.80;99.90
46732;DHT22;32477;51.474;5.696;2023-04-01T01:59:47;9.80;99.90
46732;DHT22;32477;51.474;5.696;2023-04-01T02:02:14;9.80;99.90
46732;DHT22;32477;51.474;5.696;2023-04-01T02:04:43;9.80;99.90
46732;DHT22;32477;51.474;5.696;2023-04-01T02:07:23;9.80;99.90
46732;DHT22;32477;51.474;5.696;2023-04-01T02:09:51;9.80;99.90
46732;DHT22;32477;51.474;5.696;2023-04-01T02:12:17;9.80;99.90
46732;DHT22;32477;51.474;5.696;2023-04-01T02:15:06;9.80;99.90
46732;DHT22;32477;51.474;5.696;2023-04-01T02:17:34;9.80;99.90
46732;DHT22;32477;51.474;5.696;2023-04-01T02:20:06;9.80;99.90
46732;DHT22;32477;51.474;5.696;2023-04-01T02:22:40;9.80;99.90
46732;DHT22;32477;51.474;5.696;2023-04-01T02:25:34;9.80;99.90
46732;DHT22;32477;51.474;5.696;2023-04-01T02:28:02;9.80;99.90
46732;DHT22;32477;51.474;5.696;2023-04-01T02:30:32;9.80;99.90
46732;DHT22;32477;51.474;5.696;2023-04-01T02:32:59;9.80;99.90
46732;DHT22;32477;51.474;5.696;2023-04-01T02:35:25;9.80;99.90
46732;DHT22;32477;51.474;5.696;2023-04-01T02:37:53;9.70;99.90
46732;DHT22;32477;51.474;5.696;2023-04-01T02:40:19;9.70;99.90
46732;DHT22;32477;51.474;5.696;2023-04-01T02:42:45;9.70;99.90
46732;DHT22;32477;51.474;5.696;2023-04-01T02:45:12;9.70;99.90
46732;DHT22;32477;51.474;5.696;2023-04-01T02:47:38;9.70;99.90
46732;DHT22;32477;51.474;5.696;2023-04-01T02:50:04;9.70;99.90
46732;DHT22;32477;51.474;5.696;2023-04-01T02:52:30;9.80;99.90
46732;DHT22;32477;51.474;5.696;2023-04-01T02:54:57;9.70;99.90
46732;DHT22;32477;51.474;5.696;2023-04-01T02:57:23;9.70;99.90
46732;DHT22;32477;51.474;5.696;2023-04-01T02:59:49;9.70;99.90
46732;DHT22;32477;51.474;5.696;2023-04-01T03:02:15;9.70;99.90
46732;DHT22;32477;51.474;5.696;2023-04-01T03:04:42;9.70;99.90
46732;DHT22;32477;51.474;5.696;2023-04-01T03:07:08;9.70;99.90
46732;DHT22;32477;51.474;5.696;2023-04-01T03:09:36;9.70;99.90
46732;DHT22;32477;51.474;5.696;2023-04-01T03:12:02;9.70;99.90
46732;DHT22;32477;51.474;5.696;2023-04-01T03:14:27;9.70;99.90
46732;DHT22;32477;51.474;5.696;2023-04-01T03:16:53;9.70;99.90
46732;DHT22;32477;51.474;5.696;2023-04-01T03:19:19;9.70;99.90
46732;DHT22;32477;51.474;5.696;2023-04-01T03:21:47;9.70;99.90
46732;DHT22;32477;51.474;5.696;2023-04-01T03:24:13;9.70;99.90
46732;DHT22;32477;51.474;5.696;2023-04-01T03:26:38;9.60;99.90
46732;DHT22;32477;51.474;5.696;2023-04-01T03:29:04;9.60;99.90
46732;DHT22;32477;51.474;5.696;2023-04-01T03:31:30;9.70;99.90
46732;DHT22;32477;51.474;5.696;2023-04-01T03:33:56;9.60;99.90
46732;DHT22;32477;51.474;5.696;2023-04-01T03:36:22;9.70;99.90
46732;DHT22;32477;51.474;5.696;2023-04-01T03:38:47;9.70;99.90
46732;DHT22;32477;51.474;5.696;2023-04-01T03:41:14;9.60;99.90
46732;DHT22;32477;51.474;5.696;2023-04-01T03:43:40;9.70;99.90
46732;DHT22;32477;51.474;5.696;2023-04-01T03:46:06;9.70;99.90
46732;DHT22;32477;51.474;5.696;2023-04-01T03:48:31;9.70;99.90
46732;DHT22;32477;51.474;5.696;2023-04-01T03:50:57;9.70;99.90
46732;DHT22;32477;51.474;5.696;2023-04-01T03:53:23;9.60;99.90
46732;DHT22;32477;51.474;5.696;2023-04-01T03:55:48;9.60;99.90
46732;DHT22;32477;51.474;5.696;2023-04-01T03:58:16;9.60;99.90
46732;DHT22;32477;51.474;5.696;2023-04-01T04:00:42;9.70;99.90
46732;DHT22;32477;51.474;5.696;2023-04-01T04:03:07;9.60;99.90
46732;DHT22;32477;51.474;5.696;2023-04-01T04:05:33;9.60;99.90
46732;DHT22;32477;51.474;5.696;2023-04-01T04:07:59;9.60;99.90
46732;DHT22;32477;51.474;5.696;2023-04-01T04:10:24;9.60;99.90
46732;DHT22;32477;51.474;5.696;2023-04-01T04:12:51;9.60;99.90
46732;DHT22;32477;51.474;5.696;2023-04-01T04:15:17;9.60;99.90
46732;DHT22;32477;51.474;5.696;2023-04-01T04:17:44;9.60;99.90
46732;DHT22;32477;51.474;5.696;2023-04-01T04:20:10;9.60;99.90
46732;DHT22;32477;51.474;5.696;2023-04-01T04:22:36;9.60;99.90
46732;DHT22;32477;51.474;5.696;2023-04-01T04:25:01;9.60;99.90
46732;DHT22;32477;51.474;5.696;2023-04-01T04:27:27;9.60;99.90
46732;DHT22;32477;51.474;5.696;2023-04-01T04:29:53;9.60;99.90
46732;DHT22;32477;51.474;5.696;2023-04-01T04:32:18;9.60;99.90
46732;DHT22;32477;51.474;5.696;2023-04-01T04:34:44;9.60;99.90
46732;DHT22;32477;51.474;5.696;2023-04-01T04:37:09;9.50;99.90
46732;DHT22;32477;51.474;5.696;2023-04-01T04:39:38;9.60;99.90
46732;DHT22;32477;51.474;5.696;2023-04-01T04:42:04;9.60;99.90
46732;DHT22;32477;51.474;5.696;2023-04-01T04:44:30;9.60;99.90
46732;DHT22;32477;51.474;5.696;2023-04-01T04:46:56;9.50;99.90
46732;DHT22;32477;51.474;5.696;2023-04-01T04:49:22;9.50;99.90
46732;DHT22;32477;51.474;5.696;2023-04-01T04:51:47;9.50;99.90
46732;DHT22;32477;51.474;5.696;2023-04-01T04:54:13;9.50;99.90
46732;DHT22;32477;51.474;5.696;2023-04-01T04:56:39;9.50;99.90
46732;DHT22;32477;51.474;5.696;2023-04-01T04:59:05;9.50;99.90
46732;DHT22;32477;51.474;5.696;2023-04-01T05:01:30;9.50;99.90
46732;DHT22;32477;51.474;5.696;2023-04-01T05:03:56;9.50;99.90
46732;DHT22;32477;51.474;5.696;2023-04-01T05:06:21;9.50;99.90
46732;DHT22;32477;51.474;5.696;2023-04-01T05:08:47;9.50;99.90
46732;DHT22;32477;51.474;5.696;2023-04-01T05:11:15;9.40;99.90
46732;DHT22;32477;51.474;5.696;2023-04-01T05:13:42;9.40;99.90
46732;DHT22;32477;51.474;5.696;2023-04-01T05:16:16;9.40;99.90
46732;DHT22;32477;51.474;5.696;2023-04-01T05:18:43;9.40;99.90
46732;DHT22;32477;51.474;5.696;2023-04-01T05:21:10;9.40;99.90
46732;DHT22;32477;51.474;5.696;2023-04-01T05:23:36;9.40;99.90
46732;DHT22;32477;51.474;5.696;2023-04-01T05:26:07;9.40;99.90
46732;DHT22;32477;51.474;5.696;2023-04-01T05:28:33;9.40;99.90
46732;DHT22;32477;51.474;5.696;2023-04-01T05:31:00;9.40;99.90
46732;DHT22;32477;51.474;5.696;2023-04-01T05:33:27;9.40;99.90
46732;DHT22;32477;51.474;5.696;2023-04-01T05:35:53;9.40;99.90
46732;DHT22;32477;51.474;5.696;2023-04-01T05:38:19;9.40;99.90
46732;DHT22;32477;51.474;5.696;2023-04-01T05:40:44;9.40;99.90
46732;DHT22;32477;51.474;5.696;2023-04-01T05:43:11;9.40;99.90
46732;DHT22;32477;51.474;5.696;2023-04-01T05:45:37;9.40;99.90
46732;DHT22;32477;51.474;5.696;2023-04-01T05:48:03;9.40;99.90
46732;DHT22;32477;51.474;5.696;2023-04-01T05:50:29;9.40;99.90
46732;DHT22;32477;51.474;5.696;2023-04-01T05:52:55;9.40;99.90
46732;DHT22;32477;51.474;5.696;2023-04-01T05:55:21;9.40;99.90
46732;DHT22;32477;51.474;5.696;2023-04-01T05:57:53;9.40;99.90
46732;DHT22;32477;51.474;5.696;2023-04-01T06:00:19;9.40;99.90
46732;DHT22;32477;51.474;5.696;2023-04-01T06:02:45;9.40;99.90
46732;DHT22;32477;51.474;5.696;2023-04-01T06:05:17;9.40;99.90
46732;DHT22;32477;51.474;5.696;2023-04-01T06:07:43;9.40;99.90
46732;DHT22;32477;51.474;5.696;2023-04-01T06:13:06;9.40;99.90
46732;DHT22;32477;51.474;5.696;2023-04-01T06:15:37;9.40;99.90
46732;DHT22;32477;51.474;5.696;2023-04-01T06:24:07;9.50;99.90
46732;DHT22;32477;51.474;5.696;2023-04-01T06:40:37;9.50;99.90
46732;DHT22;32477;51.474;5.696;2023-04-01T06:45:47;9.50;99.90
46732;DHT22;32477;51.474;5.696;2023-04-01T06:48:32;9.60;99.90
46732;DHT22;32477;51.474;5.696;2023-04-01T06:54:20;9.60;99.90
46732;DHT22;32477;51.474;5.696;2023-04-01T06:56:51;9.60;99.90
46732;DHT22;32477;51.474;5.696;2023-04-01T06:59:28;9.60;99.90
46732;DHT22;32477;51.474;5.696;2023-04-01T07:01:59;9.60;99.90
46732;DHT22;32477;51.474;5.696;2023-04-01T07:04:30;9.60;99.90
46732;DHT22;32477;51.474;5.696;2023-04-01T07:07:17;9.60;99.90
46732;DHT22;32477;51.474;5.696;2023-04-01T07:09:53;9.60;99.90
46732;DHT22;32477;51.474;5.696;2023-04-01T07:17:39;9.80;99.90
46732;DHT22;32477;51.474;5.696;2023-04-01T07:20:26;9.80;99.90
46732;DHT22;32477;51.474;5.696;2023-04-01T07:22:59;9.90;99.90
46732;DHT22;32477;51.474;5.696;2023-04-01T07:25:33;10.00;99.90
46732;DHT22;32477;51.474;5.696;2023-04-01T07:28:04;10.00;99.90
46732;DHT22;32477;51.474;5.696;2023-04-01T07:30:40;10.00;99.90
46732;DHT22;32477;51.474;5.696;2023-04-01T07:33:16;10.00;99.90
46732;DHT22;32477;51.474;5.696;2023-04-01T07:39:02;10.10;99.90
46732;DHT22;32477;51.474;5.696;2023-04-01T07:44:28;10.20;99.90
46732;DHT22;32477;51.474;5.696;2023-04-01T07:55:36;10.20;99.90
46732;DHT22;32477;51.474;5.696;2023-04-01T07:58:29;10.10;99.90
46732;DHT22;32477;51.474;5.696;2023-04-01T08:06:36;10.10;99.90
46732;DHT22;32477;51.474;5.696;2023-04-01T08:23:15;10.80;99.90
46732;DHT22;32477;51.474;5.696;2023-04-01T08:26:32;10.90;99.90
46732;DHT22;32477;51.474;5.696;2023-04-01T08:28:45;11.00;99.90
46732;DHT22;32477;51.474;5.696;2023-04-01T08:31:48;11.00;99.90
46732;DHT22;32477;51.474;5.696;2023-04-01T08:34:15;11.30;99.90
46732;DHT22;32477;51.474;5.696;2023-04-01T08:36:47;11.20;99.90
46732;DHT22;32477;51.474;5.696;2023-04-01T08:39:18;11.30;99.90
46732;DHT22;32477;51.474;5.696;2023-04-01T08:53:17;10.80;99.90
46732;DHT22;32477;51.474;5.696;2023-04-01T08:56:14;10.90;99.90
46732;DHT22;32477;51.474;5.696;2023-04-01T08:59:21;10.90;99.90
46732;DHT22;32477;51.474;5.696;2023-04-01T09:02:02;10.90;99.90
46732;DHT22;32477;51.474;5.696;2023-04-01T09:12:36;10.80;99.90
46732;DHT22;32477;51.474;5.696;2023-04-01T09:23:52;11.20;99.90
46732;DHT22;32477;51.474;5.696;2023-04-01T09:26:26;11.40;99.90
46732;DHT22;32477;51.474;5.696;2023-04-01T09:29:29;11.50;99.90
46732;DHT22;32477;51.474;5.696;2023-04-01T09:34:40;11.80;99.90
46732;DHT22;32477;51.474;5.696;2023-04-01T09:42:53;12.00;99.90
46732;DHT22;32477;51.474;5.696;2023-04-01T09:48:19;12.10;99.90
46732;DHT22;32477;51.474;5.696;2023-04-01T09:51:23;12.40;99.90
46732;DHT22;32477;51.474;5.696;2023-04-01T09:53:48;12.50;99.90
46732;DHT22;32477;51.474;5.696;2023-04-01T10:04:55;11.90;99.90
46732;DHT22;32477;51.474;5.696;2023-04-01T10:07:51;11.70;99.90
46732;DHT22;32477;51.474;5.696;2023-04-01T10:10:53;11.70;99.90
46732;DHT22;32477;51.474;5.696;2023-04-01T10:19:49;11.50;99.90
46732;DHT22;32477;51.474;5.696;2023-04-01T10:53:42;11.00;99.90
46732;DHT22;32477;51.474;5.696;2023-04-01T11:18:53;11.30;99.90
46732;DHT22;32477;51.474;5.696;2023-04-01T11:32:59;11.00;99.90
46732;DHT22;32477;51.474;5.696;2023-04-01T11:38:24;11.10;99.90
46732;DHT22;32477;51.474;5.696;2023-04-01T11:44:15;11.10;99.90
46732;DHT22;32477;51.474;5.696;2023-04-01T11:46:52;11.10;99.90
46732;DHT22;32477;51.474;5.696;2023-04-01T11:49:44;11.10;99.90
46732;DHT22;32477;51.474;5.696;2023-04-01T11:52:46;11.20;99.90
46732;DHT22;32477;51.474;5.696;2023-04-01T11:55:28;11.10;99.90
46732;DHT22;32477;51.474;5.696;2023-04-01T11:58:18;11.20;99.90
46732;DHT22;32477;51.474;5.696;2023-04-01T12:00:57;11.20;99.90
46732;DHT22;32477;51.474;5.696;2023-04-01T12:09:34;11.20;99.90
46732;DHT22;32477;51.474;5.696;2023-04-01T12:15:16;11.40;99.90
46732;DHT22;32477;51.474;5.696;2023-04-01T12:20:49;11.60;99.90
46732;DHT22;32477;51.474;5.696;2023-04-01T12:23:38;11.60;99.90
46732;DHT22;32477;51.474;5.696;2023-04-01T12:29:07;11.80;99.90
46732;DHT22;32477;51.474;5.696;2023-04-01T12:34:36;11.90;99.90
46732;DHT22;32477;51.474;5.696;2023-04-01T12:37:27;12.00;99.90
46732;DHT22;32477;51.474;5.696;2023-04-01T12:45:38;11.70;99.90
46732;DHT22;32477;51.474;5.696;2023-04-01T12:50:54;11.50;99.90
46732;DHT22;32477;51.474;5.696;2023-04-01T12:56:24;11.40;99.90
46732;DHT22;32477;51.474;5.696;2023-04-01T13:04:50;11.20;99.90
46732;DHT22;32477;51.474;5.696;2023-04-01T13:23:52;11.10;99.90
46732;DHT22;32477;51.474;5.696;2023-04-01T13:29:21;11.10;99.90
46732;DHT22;32477;51.474;5.696;2023-04-01T13:32:34;11.10;99.90
46732;DHT22;32477;51.474;5.696;2023-04-01T13:44:06;11.10;99.90
46732;DHT22;32477;51.474;5.696;2023-04-01T13:57:51;11.00;99.90
46732;DHT22;32477;51.474;5.696;2023-04-01T14:09:04;10.90;99.90
46732;DHT22;32477;51.474;5.696;2023-04-01T14:11:56;10.80;99.90
46732;DHT22;32477;51.474;5.696;2023-04-01T14:30:41;10.80;99.90
46732;DHT22;32477;51.474;5.696;2023-04-01T14:41:55;10.90;99.90
46732;DHT22;32477;51.474;5.696;2023-04-01T14:49:37;10.90;99.90
46732;DHT22;32477;51.474;5.696;2023-04-01T14:52:28;10.90;99.90
46732;DHT22;32477;51.474;5.696;2023-04-01T14:54:58;10.90;99.90
46732;DHT22;32477;51.474;5.696;2023-04-01T14:57:30;10.90;99.90
46732;DHT22;32477;51.474;5.696;2023-04-01T15:00:13;10.90;99.90
46732;DHT22;32477;51.474;5.696;2023-04-01T15:25:25;10.70;99.90
46732;DHT22;32477;51.474;5.696;2023-04-01T15:28:28;10.70;99.90
46732;DHT22;32477;51.474;5.696;2023-04-01T15:36:53;10.70;99.90
46732;DHT22;32477;51.474;5.696;2023-04-01T15:39:37;10.70;99.90
46732;DHT22;32477;51.474;5.696;2023-04-01T15:58:29;10.60;99.90
46732;DHT22;32477;51.474;5.696;2023-04-01T16:03:53;10.60;99.90
46732;DHT22;32477;51.474;5.696;2023-04-01T16:12:36;10.60;99.90
46732;DHT22;32477;51.474;5.696;2023-04-01T16:15:29;10.70;99.90
46732;DHT22;32477;51.474;5.696;2023-04-01T16:23:37;10.70;99.90
46732;DHT22;32477;51.474;5.696;2023-04-01T16:28:48;10.60;99.90
46732;DHT22;32477;51.474;5.696;2023-04-01T16:34:08;10.60;99.90
46732;DHT22;32477;51.474;5.696;2023-04-01T16:36:42;10.60;99.90
46732;DHT22;32477;51.474;5.696;2023-04-01T16:42:27;10.60;99.90
46732;DHT22;32477;51.474;5.696;2023-04-01T16:47:54;10.50;99.90
46732;DHT22;32477;51.474;5.696;2023-04-01T16:50:27;10.50;99.90
46732;DHT22;32477;51.474;5.696;2023-04-01T16:55:44;10.50;99.90
46732;DHT22;32477;51.474;5.696;2023-04-01T16:58:18;10.50;99.90
46732;DHT22;32477;51.474;5.696;2023-04-01T17:01:00;10.50;99.90
46732;DHT22;32477;51.474;5.696;2023-04-01T17:03:30;10.40;99.90
46732;DHT22;32477;51.474;5.696;2023-04-01T17:09:12;10.40;99.90
46732;DHT22;32477;51.474;5.696;2023-04-01T17:14:40;10.40;99.90
46732;DHT22;32477;51.474;5.696;2023-04-01T17:23:53;10.30;99.90
46732;DHT22;32477;51.474;5.696;2023-04-01T17:28:58;10.30;99.90
46732;DHT22;32477;51.474;5.696;2023-04-01T17:34:24;10.30;99.90
46732;DHT22;32477;51.474;5.696;2023-04-01T17:43:04;10.20;99.90
46732;DHT22;32477;51.474;5.696;2023-04-01T17:48:45;10.30;99.90
46732;DHT22;32477;51.474;5.696;2023-04-01T17:51:26;10.30;99.90
46732;DHT22;32477;51.474;5.696;2023-04-01T17:56:38;10.30;99.90
46732;DHT22;32477;51.474;5.696;2023-04-01T17:59:29;10.30;99.90
46732;DHT22;32477;51.474;5.696;2023-04-01T18:14:50;10.40;99.90
46732;DHT22;32477;51.474;5.696;2023-04-01T18:17:25;10.40;99.90
46732;DHT22;32477;51.474;5.696;2023-04-01T18:20:21;10.40;99.90
46732;DHT22;32477;51.474;5.696;2023-04-01T18:23:06;10.40;99.90
46732;DHT22;32477;51.474;5.696;2023-04-01T18:25:39;10.40;99.90
46732;DHT22;32477;51.474;5.696;2023-04-01T18:28:39;10.40;99.90
46732;DHT22;32477;51.474;5.696;2023-04-01T18:31:15;10.30;99.90
46732;DHT22;32477;51.474;5.696;2023-04-01T18:50:32;10.10;99.90
46732;DHT22;32477;51.474;5.696;2023-04-01T18:56:37;10.10;99.90
46732;DHT22;32477;51.474;5.696;2023-04-01T18:59:26;10.00;99.90
46732;DHT22;32477;51.474;5.696;2023-04-01T19:02:27;10.00;99.90
46732;DHT22;32477;51.474;5.696;2023-04-01T19:05:10;10.00;99.90
46732;DHT22;32477;51.474;5.696;2023-04-01T19:21:40;9.90;99.90
46732;DHT22;32477;51.474;5.696;2023-04-01T19:27:10;9.80;99.90
46732;DHT22;32477;51.474;5.696;2023-04-01T19:40:55;9.80;99.90
46732;DHT22;32477;51.474;5.696;2023-04-01T19:43:35;9.70;99.90
46732;DHT22;32477;51.474;5.696;2023-04-01T19:46:19;9.70;99.90
46732;DHT22;32477;51.474;5.696;2023-04-01T19:54:24;9.50;99.90
46732;DHT22;32477;51.474;5.696;2023-04-01T19:56:56;9.50;99.90
46732;DHT22;32477;51.474;5.696;2023-04-01T19:59:38;9.50;99.90
46732;DHT22;32477;51.474;5.696;2023-04-01T20:04:49;9.40;99.90
46732;DHT22;32477;51.474;5.696;2023-04-01T20:07:34;9.40;99.90
46732;DHT22;32477;51.474;5.696;2023-04-01T20:10:22;9.40;99.90
46732;DHT22;32477;51.474;5.696;2023-04-01T20:13:15;9.30;99.90
46732;DHT22;32477;51.474;5.696;2023-04-01T20:15:46;9.30;99.90
46732;DHT22;32477;51.474;5.696;2023-04-01T20:18:19;9.30;99.90
46732;DHT22;32477;51.474;5.696;2023-04-01T20:20:57;9.30;99.90
46732;DHT22;32477;51.474;5.696;2023-04-01T20:23:34;9.30;99.90
46732;DHT22;32477;51.474;5.696;2023-04-01T20:26:19;9.30;99.90
46732;DHT22;32477;51.474;5.696;2023-04-01T20:31:41;9.20;99.90
46732;DHT22;32477;51.474;5.696;2023-04-01T20:37:40;9.10;99.90
46732;DHT22;32477;51.474;5.696;2023-04-01T20:40:28;9.00;99.90
46732;DHT22;32477;51.474;5.696;2023-04-01T20:49:21;8.90;99.90
46732;DHT22;32477;51.474;5.696;2023-04-01T20:57:19;8.80;99.90
46732;DHT22;32477;51.474;5.696;2023-04-01T21:08:24;8.80;99.90
46732;DHT22;32477;51.474;5.696;2023-04-01T21:13:45;8.80;99.90
46732;DHT22;32477;51.474;5.696;2023-04-01T21:19:08;8.70;99.90
46732;DHT22;32477;51.474;5.696;2023-04-01T21:21:54;8.70;99.90
46732;DHT22;32477;51.474;5.696;2023-04-01T21:24:34;8.70;99.90
46732;DHT22;32477;51.474;5.696;2023-04-01T21:27:16;8.70;99.90
46732;DHT22;32477;51.474;5.696;2023-04-01T21:48:52;8.60;99.90
46732;DHT22;32477;51.474;5.696;2023-04-01T22:08:44;8.30;99.90
46732;DHT22;32477;51.474;5.696;2023-04-01T22:11:41;8.30;99.90
46732;DHT22;32477;51.474;5.696;2023-04-01T22:16:58;8.30;99.90
46732;DHT22;32477;51.474;5.696;2023-04-01T22:19:59;8.30;99.90
46732;DHT22;32477;51.474;5.696;2023-04-01T22:22:55;8.20;99.90
46732;DHT22;32477;51.474;5.696;2023-04-01T22:30:25;8.00;99.90
46732;DHT22;32477;51.474;5.696;2023-04-01T22:35:37;8.00;99.90
46732;DHT22;32477;51.474;5.696;2023-04-01T22:38:41;8.00;99.90
46732;DHT22;32477;51.474;5.696;2023-04-01T22:43:45;7.90;99.90
46732;DHT22;32477;51.474;5.696;2023-04-01T22:49:17;7.80;99.90
46732;DHT22;32477;51.474;5.696;2023-04-01T22:52:08;7.80;99.90
46732;DHT22;32477;51.474;5.696;2023-04-01T22:55:00;7.70;99.90
46732;DHT22;32477;51.474;5.696;2023-04-01T22:57:41;7.70;99.90
46732;DHT22;32477;51.474;5.696;2023-04-01T23:00:16;7.70;99.90
46732;DHT22;32477;51.474;5.696;2023-04-01T23:05:41;7.60;99.90
46732;DHT22;32477;51.474;5.696;2023-04-01T23:11:02;7.60;99.90
46732;DHT22;32477;51.474;5.696;2023-04-01T23:13:34;7.50;99.90
46732;DHT22;32477;51.474;5.696;2023-04-01T23:16:03;7.50;99.90
46732;DHT22;32477;51.474;5.696;2023-04-01T23:18:48;7.50;99.90
46732;DHT22;32477;51.474;5.696;2023-04-01T23:21:26;7.50;99.90
46732;DHT22;32477;51.474;5.696;2023-04-01T23:27:01;7.40;99.90
46732;DHT22;32477;51.474;5.696;2023-04-01T23:29:29;7.40;99.90
46732;DHT22;32477;51.474;5.696;2023-04-01T23:32:17;7.40;99.90
46732;DHT22;32477;51.474;5.696;2023-04-01T23:34:49;7.40;99.90
46732;DHT22;32477;51.474;5.696;2023-04-01T23:37:16;7.40;99.90
46732;DHT22;32477;51.474;5.696;2023-04-01T23:39:46;7.40;99.90
46732;DHT22;32477;51.474;5.696;2023-04-01T23:42:23;7.40;99.90
46732;DHT22;32477;51.474;5.696;2023-04-01T23:44:59;7.40;99.90
46732;DHT22;32477;51.474;5.696;2023-04-01T23:47:38;7.30;99.90
46732;DHT22;32477;51.474;5.696;2023-04-01T23:50:20;7.30;99.90
46732;DHT22;32477;51.474;5.696;2023-04-01T23:52:51;7.30;99.90
46732;DHT22;32477;51.474;5.696;2023-04-01T23:55:23;7.30;99.90
46732;DHT22;32477;51.474;5.696;2023-04-01T23:58:23;7.30;99.90
